sensor_id;sensor_type;location;lat;lon;timestamp;temperature;humidity
15707;DHT22;7953;54.302;10.128;2023-03-31T00:01:13;10.10;99.90
15707;DHT22;7953;54.302;10.128;2023-03-31T00:03:41;10.10;99.90
15707;DHT22;7953;54.302;10.128;2023-03-31T00:06:10;10.10;99.90
15707;DHT22;7953;54.302;10.128;2023-03-31T00:08:37;10.10;99.90
15707;DHT22;7953;54.302;10.128;2023-03-31T00:11:06;10.10;99.90
15707;DHT22;7953;54.302;10.128;2023-03-31T00:13:33;10.10;99.90
15707;DHT22;7953;54.302;10.128;2023-03-31T00:16:02;10.10;99.90
15707;DHT22;7953;54.302;10.128;2023-03-31T00:18:29;10.10;99.90
15707;DHT22;7953;54.302;10.128;2023-03-31T00:21:06;10.10;99.90
15707;DHT22;7953;54.302;10.128;2023-03-31T00:23:33;10.10;99.90
15707;DHT22;7953;54.302;10.128;2023-03-31T00:26:00;10.10;99.90
15707;DHT22;7953;54.302;10.128;2023-03-31T00:28:27;10.10;99.90
15707;DHT22;7953;54.302;10.128;2023-03-31T00:30:59;10.10;99.90
15707;DHT22;7953;54.302;10.128;2023-03-31T00:33:27;10.10;99.90
15707;DHT22;7953;54.302;10.128;2023-03-31T00:35:54;10.10;99.90
15707;DHT22;7953;54.302;10.128;2023-03-31T00:38:22;10.10;99.90
15707;DHT22;7953;54.302;10.128;2023-03-31T00:40:49;10.10;99.90
15707;DHT22;7953;54.302;10.128;2023-03-31T00:43:26;10.00;99.90
15707;DHT22;7953;54.302;10.128;2023-03-31T00:45:57;10.00;99.90
15707;DHT22;7953;54.302;10.128;2023-03-31T00:48:26;10.10;99.90
15707;DHT22;7953;54.302;10.128;2023-03-31T00:50:55;10.10;99.90
15707;DHT22;7953;54.302;10.128;2023-03-31T00:53:27;10.10;99.90
15707;DHT22;7953;54.302;10.128;2023-03-31T00:55:59;10.10;99.90
15707;DHT22;7953;54.302;10.128;2023-03-31T00:58:28;10.10;99.90
15707;DHT22;7953;54.302;10.128;2023-03-31T01:00:59;10.10;99.90
15707;DHT22;7953;54.302;10.128;2023-03-31T01:03:27;10.10;99.90
15707;DHT22;7953;54.302;10.128;2023-03-31T01:05:56;10.10;99.90
15707;DHT22;7953;54.302;10.128;2023-03-31T01:08:26;10.10;99.90
15707;DHT22;7953;54.302;10.128;2023-03-31T01:10:57;10.10;99.90
15707;DHT22;7953;54.302;10.128;2023-03-31T01:13:26;10.20;99.90
15707;DHT22;7953;54.302;10.128;2023-03-31T01:15:53;10.20;99.90
15707;DHT22;7953;54.302;10.128;2023-03-31T01:18:20;10.20;99.90
15707;DHT22;7953;54.302;10.128;2023-03-31T01:21:06;10.20;99.90
15707;DHT22;7953;54.302;10.128;2023-03-31T01:26:52;10.30;99.90
15707;DHT22;7953;54.302;10.128;2023-03-31T01:32:45;10.20;99.90
15707;DHT22;7953;54.302;10.128;2023-03-31T01:41:28;10.20;99.90
15707;DHT22;7953;54.302;10.128;2023-03-31T01:44:03;10.30;99.90
15707;DHT22;7953;54.302;10.128;2023-03-31T01:46:35;10.20;99.90
15707;DHT22;7953;54.302;10.128;2023-03-31T01:49:16;10.20;99.90
15707;DHT22;7953;54.302;10.128;2023-03-31T01:51:48;10.20;99.90
15707;DHT22;7953;54.302;10.128;2023-03-31T01:54:21;10.20;99.90
15707;DHT22;7953;54.302;10.128;2023-03-31T01:56:53;10.30;99.90
15707;DHT22;7953;54.302;10.128;2023-03-31T01:59:25;10.20;99.90
15707;DHT22;7953;54.302;10.128;2023-03-31T02:01:56;10.30;99.90
15707;DHT22;7953;54.302;10.128;2023-03-31T02:04:28;10.30;99.90
15707;DHT22;7953;54.302;10.128;2023-03-31T02:06:59;10.30;99.90
15707;DHT22;7953;54.302;10.128;2023-03-31T02:09:34;10.30;99.90
15707;DHT22;7953;54.302;10.128;2023-03-31T02:12:07;10.20;99.90
15707;DHT22;7953;54.302;10.128;2023-03-31T02:14:36;10.20;99.90
15707;DHT22;7953;54.302;10.128;2023-03-31T02:17:06;10.20;99.90
15707;DHT22;7953;54.302;10.128;2023-03-31T02:19:40;10.20;99.90
15707;DHT22;7953;54.302;10.128;2023-03-31T02:22:09;10.20;99.90
15707;DHT22;7953;54.302;10.128;2023-03-31T02:24:40;10.20;99.90
15707;DHT22;7953;54.302;10.128;2023-03-31T02:27:16;10.20;99.90
15707;DHT22;7953;54.302;10.128;2023-03-31T02:29:44;10.20;99.90
15707;DHT22;7953;54.302;10.128;2023-03-31T02:32:15;10.20;99.90
15707;DHT22;7953;54.302;10.128;2023-03-31T02:34:46;10.20;99.90
15707;DHT22;7953;54.302;10.128;2023-03-31T02:37:12;10.20;99.90
15707;DHT22;7953;54.302;10.128;2023-03-31T02:39:42;10.20;99.90
15707;DHT22;7953;54.302;10.128;2023-03-31T02:42:11;10.20;99.90
15707;DHT22;7953;54.302;10.128;2023-03-31T02:44:38;10.20;99.90
15707;DHT22;7953;54.302;10.128;2023-03-31T02:47:07;10.20;99.90
15707;DHT22;7953;54.302;10.128;2023-03-31T02:49:37;10.20;99.90
15707;DHT22;7953;54.302;10.128;2023-03-31T02:52:27;10.20;99.90
15707;DHT22;7953;54.302;10.128;2023-03-31T02:55:20;10.20;99.90
15707;DHT22;7953;54.302;10.128;2023-03-31T02:58:04;10.20;99.90
15707;DHT22;7953;54.302;10.128;2023-03-31T03:00:48;10.10;99.90
15707;DHT22;7953;54.302;10.128;2023-03-31T03:03:29;10.10;99.90
15707;DHT22;7953;54.302;10.128;2023-03-31T03:06:09;10.10;99.90
15707;DHT22;7953;54.302;10.128;2023-03-31T03:09:00;10.10;99.90
15707;DHT22;7953;54.302;10.128;2023-03-31T03:11:38;10.10;99.90
15707;DHT22;7953;54.302;10.128;2023-03-31T03:14:16;10.10;99.90
15707;DHT22;7953;54.302;10.128;2023-03-31T03:16:47;10.10;99.90
15707;DHT22;7953;54.302;10.128;2023-03-31T03:19:18;10.10;99.90
15707;DHT22;7953;54.302;10.128;2023-03-31T03:21:46;10.10;99.90
15707;DHT22;7953;54.302;10.128;2023-03-31T03:24:14;10.00;99.90
15707;DHT22;7953;54.302;10.128;2023-03-31T03:26:41;10.00;99.90
15707;DHT22;7953;54.302;10.128;2023-03-31T03:29:11;10.00;99.90
15707;DHT22;7953;54.302;10.128;2023-03-31T03:31:39;10.00;99.90
15707;DHT22;7953;54.302;10.128;2023-03-31T03:34:06;10.00;99.90
15707;DHT22;7953;54.302;10.128;2023-03-31T03:36:34;10.00;99.90
15707;DHT22;7953;54.302;10.128;2023-03-31T03:39:02;10.00;99.90
15707;DHT22;7953;54.302;10.128;2023-03-31T03:41:29;10.00;99.90
15707;DHT22;7953;54.302;10.128;2023-03-31T03:43:57;10.00;99.90
15707;DHT22;7953;54.302;10.128;2023-03-31T03:46:26;10.00;99.90
15707;DHT22;7953;54.302;10.128;2023-03-31T03:48:53;10.00;99.90
15707;DHT22;7953;54.302;10.128;2023-03-31T03:51:20;10.00;99.90
15707;DHT22;7953;54.302;10.128;2023-03-31T03:53:47;10.00;99.90
15707;DHT22;7953;54.302;10.128;2023-03-31T03:56:14;10.10;99.90
15707;DHT22;7953;54.302;10.128;2023-03-31T03:58:41;10.00;99.90
15707;DHT22;7953;54.302;10.128;2023-03-31T04:01:08;10.00;99.90
15707;DHT22;7953;54.302;10.128;2023-03-31T04:03:36;10.00;99.90
15707;DHT22;7953;54.302;10.128;2023-03-31T04:06:03;10.00;99.90
15707;DHT22;7953;54.302;10.128;2023-03-31T04:08:30;10.00;99.90
15707;DHT22;7953;54.302;10.128;2023-03-31T04:10:57;10.00;99.90
15707;DHT22;7953;54.302;10.128;2023-03-31T04:13:24;10.00;99.90
15707;DHT22;7953;54.302;10.128;2023-03-31T04:15:51;10.00;99.90
15707;DHT22;7953;54.302;10.128;2023-03-31T04:18:18;10.00;99.90
15707;DHT22;7953;54.302;10.128;2023-03-31T04:20:50;10.00;99.90
15707;DHT22;7953;54.302;10.128;2023-03-31T04:23:20;10.00;99.90
15707;DHT22;7953;54.302;10.128;2023-03-31T04:25:49;10.00;99.90
15707;DHT22;7953;54.302;10.128;2023-03-31T04:28:15;10.00;99.90
15707;DHT22;7953;54.302;10.128;2023-03-31T04:30:42;10.00;99.90
15707;DHT22;7953;54.302;10.128;2023-03-31T04:33:09;10.00;99.90
15707;DHT22;7953;54.302;10.128;2023-03-31T04:35:40;10.00;99.90
15707;DHT22;7953;54.302;10.128;2023-03-31T04:38:16;10.00;99.90
15707;DHT22;7953;54.302;10.128;2023-03-31T04:40:45;10.00;99.90
15707;DHT22;7953;54.302;10.128;2023-03-31T04:43:13;9.90;99.90
15707;DHT22;7953;54.302;10.128;2023-03-31T04:45:40;10.00;99.90
15707;DHT22;7953;54.302;10.128;2023-03-31T04:48:08;9.90;99.90
15707;DHT22;7953;54.302;10.128;2023-03-31T04:50:35;10.00;99.90
15707;DHT22;7953;54.302;10.128;2023-03-31T04:53:03;10.00;99.90
15707;DHT22;7953;54.302;10.128;2023-03-31T04:55:31;10.00;99.90
15707;DHT22;7953;54.302;10.128;2023-03-31T04:57:58;10.00;99.90
15707;DHT22;7953;54.302;10.128;2023-03-31T05:00:25;10.00;99.90
15707;DHT22;7953;54.302;10.128;2023-03-31T05:02:53;10.00;99.90
15707;DHT22;7953;54.302;10.128;2023-03-31T05:05:20;10.00;99.90
15707;DHT22;7953;54.302;10.128;2023-03-31T05:07:47;10.00;99.90
15707;DHT22;7953;54.302;10.128;2023-03-31T05:10:14;10.00;99.90
15707;DHT22;7953;54.302;10.128;2023-03-31T05:12:42;10.00;99.90
15707;DHT22;7953;54.302;10.128;2023-03-31T05:15:10;9.90;99.90
15707;DHT22;7953;54.302;10.128;2023-03-31T05:17:37;10.00;99.90
15707;DHT22;7953;54.302;10.128;2023-03-31T05:20:05;9.90;99.90
15707;DHT22;7953;54.302;10.128;2023-03-31T05:22:34;10.00;99.90
15707;DHT22;7953;54.302;10.128;2023-03-31T05:25:01;10.00;99.90
15707;DHT22;7953;54.302;10.128;2023-03-31T05:27:29;10.00;99.90
15707;DHT22;7953;54.302;10.128;2023-03-31T05:29:58;9.90;99.90
15707;DHT22;7953;54.302;10.128;2023-03-31T05:32:25;10.00;99.90
15707;DHT22;7953;54.302;10.128;2023-03-31T05:34:52;9.90;99.90
15707;DHT22;7953;54.302;10.128;2023-03-31T05:37:22;9.90;99.90
15707;DHT22;7953;54.302;10.128;2023-03-31T05:39:50;9.90;99.90
15707;DHT22;7953;54.302;10.128;2023-03-31T05:42:17;9.90;99.90
15707;DHT22;7953;54.302;10.128;2023-03-31T05:44:44;10.00;99.90
15707;DHT22;7953;54.302;10.128;2023-03-31T05:47:13;10.00;99.90
15707;DHT22;7953;54.302;10.128;2023-03-31T05:49:40;10.00;99.90
15707;DHT22;7953;54.302;10.128;2023-03-31T05:52:07;10.00;99.90
15707;DHT22;7953;54.302;10.128;2023-03-31T05:54:34;10.00;99.90
15707;DHT22;7953;54.302;10.128;2023-03-31T05:57:01;10.00;99.90
15707;DHT22;7953;54.302;10.128;2023-03-31T05:59:28;10.00;99.90
15707;DHT22;7953;54.302;10.128;2023-03-31T06:01:55;10.00;99.90
15707;DHT22;7953;54.302;10.128;2023-03-31T06:04:24;10.00;99.90
15707;DHT22;7953;54.302;10.128;2023-03-31T06:06:51;10.00;99.90
15707;DHT22;7953;54.302;10.128;2023-03-31T06:09:18;10.00;99.90
15707;DHT22;7953;54.302;10.128;2023-03-31T06:11:45;10.00;99.90
15707;DHT22;7953;54.302;10.128;2023-03-31T06:14:13;10.00;99.90
15707;DHT22;7953;54.302;10.128;2023-03-31T06:16:39;10.00;99.90
15707;DHT22;7953;54.302;10.128;2023-03-31T06:19:07;10.00;99.90
15707;DHT22;7953;54.302;10.128;2023-03-31T06:21:35;10.00;99.90
15707;DHT22;7953;54.302;10.128;2023-03-31T06:24:02;10.10;99.90
15707;DHT22;7953;54.302;10.128;2023-03-31T06:26:28;10.10;99.90
15707;DHT22;7953;54.302;10.128;2023-03-31T06:28:56;10.10;99.90
15707;DHT22;7953;54.302;10.128;2023-03-31T06:31:23;10.10;99.90
15707;DHT22;7953;54.302;10.128;2023-03-31T06:33:51;10.10;99.90
15707;DHT22;7953;54.302;10.128;2023-03-31T06:36:19;10.10;99.90
15707;DHT22;7953;54.302;10.128;2023-03-31T06:38:48;10.10;99.90
15707;DHT22;7953;54.302;10.128;2023-03-31T06:41:17;10.20;99.90
15707;DHT22;7953;54.302;10.128;2023-03-31T06:43:45;10.20;99.90
15707;DHT22;7953;54.302;10.128;2023-03-31T06:46:12;10.20;99.90
15707;DHT22;7953;54.302;10.128;2023-03-31T06:48:39;10.30;99.90
15707;DHT22;7953;54.302;10.128;2023-03-31T06:51:06;10.30;99.90
15707;DHT22;7953;54.302;10.128;2023-03-31T06:53:34;10.20;99.90
15707;DHT22;7953;54.302;10.128;2023-03-31T06:56:02;10.20;99.90
15707;DHT22;7953;54.302;10.128;2023-03-31T06:58:29;10.20;99.90
15707;DHT22;7953;54.302;10.128;2023-03-31T07:00:56;10.20;99.90
15707;DHT22;7953;54.302;10.128;2023-03-31T07:03:23;10.20;99.90
15707;DHT22;7953;54.302;10.128;2023-03-31T07:05:51;10.20;99.90
15707;DHT22;7953;54.302;10.128;2023-03-31T07:08:19;10.30;99.90
15707;DHT22;7953;54.302;10.128;2023-03-31T07:10:46;10.30;99.90
15707;DHT22;7953;54.302;10.128;2023-03-31T07:13:15;10.30;99.90
15707;DHT22;7953;54.302;10.128;2023-03-31T07:15:45;10.40;99.90
15707;DHT22;7953;54.302;10.128;2023-03-31T07:18:12;10.30;99.90
15707;DHT22;7953;54.302;10.128;2023-03-31T07:20:40;10.30;99.90
15707;DHT22;7953;54.302;10.128;2023-03-31T07:23:08;10.40;99.90
15707;DHT22;7953;54.302;10.128;2023-03-31T07:25:35;10.40;99.90
15707;DHT22;7953;54.302;10.128;2023-03-31T07:28:02;10.50;99.90
15707;DHT22;7953;54.302;10.128;2023-03-31T07:30:31;10.50;99.90
15707;DHT22;7953;54.302;10.128;2023-03-31T07:32:59;10.50;99.90
15707;DHT22;7953;54.302;10.128;2023-03-31T07:35:26;10.50;99.90
15707;DHT22;7953;54.302;10.128;2023-03-31T07:37:53;10.50;99.90
15707;DHT22;7953;54.302;10.128;2023-03-31T07:40:22;10.50;99.90
15707;DHT22;7953;54.302;10.128;2023-03-31T07:42:50;10.60;99.90
15707;DHT22;7953;54.302;10.128;2023-03-31T07:45:18;10.70;99.90
15707;DHT22;7953;54.302;10.128;2023-03-31T07:47:46;10.80;99.90
15707;DHT22;7953;54.302;10.128;2023-03-31T07:50:15;10.90;99.90
15707;DHT22;7953;54.302;10.128;2023-03-31T07:52:42;11.00;99.90
15707;DHT22;7953;54.302;10.128;2023-03-31T07:55:11;11.00;99.90
15707;DHT22;7953;54.302;10.128;2023-03-31T07:57:38;11.00;99.90
15707;DHT22;7953;54.302;10.128;2023-03-31T08:00:06;11.10;99.90
15707;DHT22;7953;54.302;10.128;2023-03-31T08:02:36;11.10;99.90
15707;DHT22;7953;54.302;10.128;2023-03-31T08:05:06;11.10;99.90
15707;DHT22;7953;54.302;10.128;2023-03-31T08:07:33;11.10;99.90
15707;DHT22;7953;54.302;10.128;2023-03-31T08:10:01;11.20;99.90
15707;DHT22;7953;54.302;10.128;2023-03-31T08:12:28;11.20;99.90
15707;DHT22;7953;54.302;10.128;2023-03-31T08:14:55;11.20;99.90
15707;DHT22;7953;54.302;10.128;2023-03-31T08:17:21;11.30;99.90
15707;DHT22;7953;54.302;10.128;2023-03-31T08:19:48;11.30;99.90
15707;DHT22;7953;54.302;10.128;2023-03-31T08:22:17;11.30;99.90
15707;DHT22;7953;54.302;10.128;2023-03-31T08:24:44;11.40;99.90
15707;DHT22;7953;54.302;10.128;2023-03-31T08:27:12;11.50;99.90
15707;DHT22;7953;54.302;10.128;2023-03-31T08:29:39;11.50;99.90
15707;DHT22;7953;54.302;10.128;2023-03-31T08:32:06;11.60;99.90
15707;DHT22;7953;54.302;10.128;2023-03-31T08:34:33;11.70;99.90
15707;DHT22;7953;54.302;10.128;2023-03-31T08:37:01;11.80;99.90
15707;DHT22;7953;54.302;10.128;2023-03-31T08:39:29;11.80;99.90
15707;DHT22;7953;54.302;10.128;2023-03-31T08:41:58;11.90;99.90
15707;DHT22;7953;54.302;10.128;2023-03-31T08:44:31;11.90;99.90
15707;DHT22;7953;54.302;10.128;2023-03-31T08:47:01;11.90;99.90
15707;DHT22;7953;54.302;10.128;2023-03-31T08:49:32;11.90;99.90
15707;DHT22;7953;54.302;10.128;2023-03-31T08:52:04;12.00;99.90
15707;DHT22;7953;54.302;10.128;2023-03-31T08:54:39;12.10;99.90
15707;DHT22;7953;54.302;10.128;2023-03-31T08:57:14;12.00;99.90
15707;DHT22;7953;54.302;10.128;2023-03-31T08:59:41;12.00;99.90
15707;DHT22;7953;54.302;10.128;2023-03-31T09:02:16;11.90;99.90
15707;DHT22;7953;54.302;10.128;2023-03-31T09:07:47;11.90;99.90
15707;DHT22;7953;54.302;10.128;2023-03-31T09:10:40;11.90;99.90
15707;DHT22;7953;54.302;10.128;2023-03-31T09:13:29;11.90;99.90
15707;DHT22;7953;54.302;10.128;2023-03-31T09:16:01;11.90;99.90
15707;DHT22;7953;54.302;10.128;2023-03-31T09:18:32;11.90;99.90
15707;DHT22;7953;54.302;10.128;2023-03-31T09:21:05;11.90;99.90
15707;DHT22;7953;54.302;10.128;2023-03-31T09:23:35;12.00;99.90
15707;DHT22;7953;54.302;10.128;2023-03-31T09:26:14;12.00;99.90
15707;DHT22;7953;54.302;10.128;2023-03-31T09:28:45;12.10;99.90
15707;DHT22;7953;54.302;10.128;2023-03-31T09:31:14;12.20;99.90
15707;DHT22;7953;54.302;10.128;2023-03-31T09:33:44;12.30;99.90
15707;DHT22;7953;54.302;10.128;2023-03-31T09:36:14;12.30;99.90
15707;DHT22;7953;54.302;10.128;2023-03-31T09:38:43;12.40;99.90
15707;DHT22;7953;54.302;10.128;2023-03-31T09:41:13;12.40;99.90
15707;DHT22;7953;54.302;10.128;2023-03-31T09:43:41;12.40;99.90
15707;DHT22;7953;54.302;10.128;2023-03-31T09:46:15;12.40;99.90
15707;DHT22;7953;54.302;10.128;2023-03-31T09:48:51;12.40;99.90
15707;DHT22;7953;54.302;10.128;2023-03-31T09:51:22;12.40;99.90
15707;DHT22;7953;54.302;10.128;2023-03-31T09:53:54;12.50;99.90
15707;DHT22;7953;54.302;10.128;2023-03-31T09:56:44;12.50;99.90
15707;DHT22;7953;54.302;10.128;2023-03-31T09:59:14;12.40;99.90
15707;DHT22;7953;54.302;10.128;2023-03-31T10:01:43;12.40;99.90
15707;DHT22;7953;54.302;10.128;2023-03-31T10:04:18;12.40;99.90
15707;DHT22;7953;54.302;10.128;2023-03-31T10:06:46;12.40;99.90
15707;DHT22;7953;54.302;10.128;2023-03-31T10:09:14;12.30;99.90
15707;DHT22;7953;54.302;10.128;2023-03-31T10:11:53;12.20;99.90
15707;DHT22;7953;54.302;10.128;2023-03-31T10:14:24;12.20;99.90
15707;DHT22;7953;54.302;10.128;2023-03-31T10:16:54;12.10;99.90
15707;DHT22;7953;54.302;10.128;2023-03-31T10:19:23;12.10;99.90
15707;DHT22;7953;54.302;10.128;2023-03-31T10:21:55;12.10;99.90
15707;DHT22;7953;54.302;10.128;2023-03-31T10:24:23;12.10;99.90
15707;DHT22;7953;54.302;10.128;2023-03-31T10:26:55;12.00;99.90
15707;DHT22;7953;54.302;10.128;2023-03-31T10:29:29;12.00;99.90
15707;DHT22;7953;54.302;10.128;2023-03-31T10:32:02;11.90;99.90
15707;DHT22;7953;54.302;10.128;2023-03-31T10:34:30;11.80;99.90
15707;DHT22;7953;54.302;10.128;2023-03-31T10:36:57;11.80;99.90
15707;DHT22;7953;54.302;10.128;2023-03-31T10:39:29;11.80;99.90
15707;DHT22;7953;54.302;10.128;2023-03-31T10:41:58;11.80;99.90
15707;DHT22;7953;54.302;10.128;2023-03-31T10:44:30;11.80;99.90
15707;DHT22;7953;54.302;10.128;2023-03-31T10:47:04;12.00;99.90
15707;DHT22;7953;54.302;10.128;2023-03-31T10:49:36;12.10;99.90
15707;DHT22;7953;54.302;10.128;2023-03-31T10:52:14;12.10;99.90
15707;DHT22;7953;54.302;10.128;2023-03-31T10:54:46;12.20;99.90
15707;DHT22;7953;54.302;10.128;2023-03-31T10:57:16;12.30;99.90
15707;DHT22;7953;54.302;10.128;2023-03-31T11:00:06;12.30;99.90
15707;DHT22;7953;54.302;10.128;2023-03-31T11:02:50;12.30;99.90
15707;DHT22;7953;54.302;10.128;2023-03-31T11:05:23;12.30;99.90
15707;DHT22;7953;54.302;10.128;2023-03-31T11:08:00;12.30;99.90
15707;DHT22;7953;54.302;10.128;2023-03-31T11:10:56;12.30;99.90
15707;DHT22;7953;54.302;10.128;2023-03-31T11:13:35;12.40;99.90
15707;DHT22;7953;54.302;10.128;2023-03-31T11:16:11;12.30;99.90
15707;DHT22;7953;54.302;10.128;2023-03-31T11:18:53;12.20;99.90
15707;DHT22;7953;54.302;10.128;2023-03-31T11:21:26;12.10;99.90
15707;DHT22;7953;54.302;10.128;2023-03-31T11:24:00;12.10;99.90
15707;DHT22;7953;54.302;10.128;2023-03-31T11:26:40;11.90;99.90
15707;DHT22;7953;54.302;10.128;2023-03-31T11:29:27;11.80;99.90
15707;DHT22;7953;54.302;10.128;2023-03-31T11:32:01;11.80;99.90
15707;DHT22;7953;54.302;10.128;2023-03-31T11:34:56;11.90;99.90
15707;DHT22;7953;54.302;10.128;2023-03-31T11:37:39;12.00;99.90
15707;DHT22;7953;54.302;10.128;2023-03-31T11:40:31;12.10;99.90
15707;DHT22;7953;54.302;10.128;2023-03-31T11:43:04;12.30;99.90
15707;DHT22;7953;54.302;10.128;2023-03-31T11:45:38;12.40;99.90
15707;DHT22;7953;54.302;10.128;2023-03-31T11:48:13;12.20;99.90
15707;DHT22;7953;54.302;10.128;2023-03-31T11:50:44;12.20;99.90
15707;DHT22;7953;54.302;10.128;2023-03-31T11:53:16;12.20;99.90
15707;DHT22;7953;54.302;10.128;2023-03-31T11:55:47;12.10;99.90
15707;DHT22;7953;54.302;10.128;2023-03-31T11:58:17;12.10;99.90
15707;DHT22;7953;54.302;10.128;2023-03-31T12:00:49;12.20;99.90
15707;DHT22;7953;54.302;10.128;2023-03-31T12:03:21;12.10;99.90
15707;DHT22;7953;54.302;10.128;2023-03-31T12:05:52;12.10;99.90
15707;DHT22;7953;54.302;10.128;2023-03-31T12:08:27;12.30;99.90
15707;DHT22;7953;54.302;10.128;2023-03-31T12:11:00;12.30;99.90
15707;DHT22;7953;54.302;10.128;2023-03-31T12:13:43;12.30;99.90
15707;DHT22;7953;54.302;10.128;2023-03-31T12:16:16;12.30;99.90
15707;DHT22;7953;54.302;10.128;2023-03-31T12:18:48;12.30;99.90
15707;DHT22;7953;54.302;10.128;2023-03-31T12:21:21;12.30;99.90
15707;DHT22;7953;54.302;10.128;2023-03-31T12:23:49;12.40;99.90
15707;DHT22;7953;54.302;10.128;2023-03-31T12:26:30;12.40;99.90
15707;DHT22;7953;54.302;10.128;2023-03-31T12:29:06;12.30;99.90
15707;DHT22;7953;54.302;10.128;2023-03-31T12:31:39;12.30;99.90
15707;DHT22;7953;54.302;10.128;2023-03-31T12:34:12;12.40;99.90
15707;DHT22;7953;54.302;10.128;2023-03-31T12:36:52;12.50;99.90
15707;DHT22;7953;54.302;10.128;2023-03-31T12:39:32;12.60;99.90
15707;DHT22;7953;54.302;10.128;2023-03-31T12:42:14;12.60;99.90
15707;DHT22;7953;54.302;10.128;2023-03-31T12:44:56;12.60;99.90
15707;DHT22;7953;54.302;10.128;2023-03-31T12:50:35;12.60;99.90
15707;DHT22;7953;54.302;10.128;2023-03-31T12:53:13;12.60;99.90
15707;DHT22;7953;54.302;10.128;2023-03-31T12:55:43;12.70;99.90
15707;DHT22;7953;54.302;10.128;2023-03-31T12:58:42;12.70;99.90
15707;DHT22;7953;54.302;10.128;2023-03-31T13:01:14;12.70;99.90
15707;DHT22;7953;54.302;10.128;2023-03-31T13:03:55;12.70;99.90
15707;DHT22;7953;54.302;10.128;2023-03-31T13:06:51;12.70;99.90
15707;DHT22;7953;54.302;10.128;2023-03-31T13:09:39;12.60;99.90
15707;DHT22;7953;54.302;10.128;2023-03-31T13:12:11;12.70;99.90
15707;DHT22;7953;54.302;10.128;2023-03-31T13:14:42;12.70;99.90
15707;DHT22;7953;54.302;10.128;2023-03-31T13:17:21;12.80;99.90
15707;DHT22;7953;54.302;10.128;2023-03-31T13:19:51;12.80;99.90
15707;DHT22;7953;54.302;10.128;2023-03-31T13:22:33;12.90;99.90
15707;DHT22;7953;54.302;10.128;2023-03-31T13:25:25;12.80;99.90
15707;DHT22;7953;54.302;10.128;2023-03-31T13:27:52;12.80;99.90
15707;DHT22;7953;54.302;10.128;2023-03-31T13:30:44;12.80;99.90
15707;DHT22;7953;54.302;10.128;2023-03-31T13:33:13;12.80;99.90
15707;DHT22;7953;54.302;10.128;2023-03-31T13:35:45;12.70;99.90
15707;DHT22;7953;54.302;10.128;2023-03-31T13:38:18;12.60;99.90
15707;DHT22;7953;54.302;10.128;2023-03-31T13:40:59;12.60;99.90
15707;DHT22;7953;54.302;10.128;2023-03-31T13:44:00;12.60;99.90
15707;DHT22;7953;54.302;10.128;2023-03-31T13:46:49;12.70;99.90
15707;DHT22;7953;54.302;10.128;2023-03-31T13:49:41;12.70;99.90
15707;DHT22;7953;54.302;10.128;2023-03-31T13:52:11;12.90;99.90
15707;DHT22;7953;54.302;10.128;2023-03-31T13:55:00;13.10;99.90
15707;DHT22;7953;54.302;10.128;2023-03-31T14:00:39;13.40;99.90
15707;DHT22;7953;54.302;10.128;2023-03-31T14:03:25;13.40;99.90
15707;DHT22;7953;54.302;10.128;2023-03-31T14:05:57;13.50;99.90
15707;DHT22;7953;54.302;10.128;2023-03-31T14:08:37;13.40;99.90
15707;DHT22;7953;54.302;10.128;2023-03-31T14:11:16;13.30;99.90
15707;DHT22;7953;54.302;10.128;2023-03-31T14:13:43;13.30;99.90
15707;DHT22;7953;54.302;10.128;2023-03-31T14:16:11;13.30;99.90
15707;DHT22;7953;54.302;10.128;2023-03-31T14:18:44;13.20;99.90
15707;DHT22;7953;54.302;10.128;2023-03-31T14:21:19;13.10;99.90
15707;DHT22;7953;54.302;10.128;2023-03-31T14:23:57;13.00;99.90
15707;DHT22;7953;54.302;10.128;2023-03-31T14:26:41;12.90;99.90
15707;DHT22;7953;54.302;10.128;2023-03-31T14:29:14;12.90;99.90
15707;DHT22;7953;54.302;10.128;2023-03-31T14:31:52;13.00;99.90
15707;DHT22;7953;54.302;10.128;2023-03-31T14:34:48;13.00;99.90
15707;DHT22;7953;54.302;10.128;2023-03-31T14:37:19;13.00;99.90
15707;DHT22;7953;54.302;10.128;2023-03-31T14:39:50;13.00;99.90
15707;DHT22;7953;54.302;10.128;2023-03-31T14:42:22;13.00;99.90
15707;DHT22;7953;54.302;10.128;2023-03-31T14:44:54;13.00;99.90
15707;DHT22;7953;54.302;10.128;2023-03-31T14:47:23;13.00;99.90
15707;DHT22;7953;54.302;10.128;2023-03-31T14:49:58;12.90;99.90
15707;DHT22;7953;54.302;10.128;2023-03-31T14:52:28;12.80;99.90
15707;DHT22;7953;54.302;10.128;2023-03-31T14:54:57;12.70;99.90
15707;DHT22;7953;54.302;10.128;2023-03-31T14:57:29;12.70;99.90
15707;DHT22;7953;54.302;10.128;2023-03-31T14:59:57;12.60;99.90
15707;DHT22;7953;54.302;10.128;2023-03-31T15:02:30;12.70;99.90
15707;DHT22;7953;54.302;10.128;2023-03-31T15:05:00;12.70;99.90
15707;DHT22;7953;54.302;10.128;2023-03-31T15:07:27;12.50;99.90
15707;DHT22;7953;54.302;10.128;2023-03-31T15:09:54;12.20;99.90
15707;DHT22;7953;54.302;10.128;2023-03-31T15:12:22;12.10;99.90
15707;DHT22;7953;54.302;10.128;2023-03-31T15:14:51;12.10;99.90
15707;DHT22;7953;54.302;10.128;2023-03-31T15:17:22;12.10;99.90
15707;DHT22;7953;54.302;10.128;2023-03-31T15:19:54;12.20;99.90
15707;DHT22;7953;54.302;10.128;2023-03-31T15:22:23;12.20;99.90
15707;DHT22;7953;54.302;10.128;2023-03-31T15:24:50;12.30;99.90
15707;DHT22;7953;54.302;10.128;2023-03-31T15:27:26;12.30;99.90
15707;DHT22;7953;54.302;10.128;2023-03-31T15:29:57;12.20;99.90
15707;DHT22;7953;54.302;10.128;2023-03-31T15:32:26;12.30;99.90
15707;DHT22;7953;54.302;10.128;2023-03-31T15:34:54;12.30;99.90
15707;DHT22;7953;54.302;10.128;2023-03-31T15:37:24;12.20;99.90
15707;DHT22;7953;54.302;10.128;2023-03-31T15:39:55;12.20;99.90
15707;DHT22;7953;54.302;10.128;2023-03-31T15:42:25;12.20;99.90
15707;DHT22;7953;54.302;10.128;2023-03-31T15:44:54;12.20;99.90
15707;DHT22;7953;54.302;10.128;2023-03-31T15:47:23;12.20;99.90
15707;DHT22;7953;54.302;10.128;2023-03-31T15:49:54;12.10;99.90
15707;DHT22;7953;54.302;10.128;2023-03-31T15:52:33;12.10;99.90
15707;DHT22;7953;54.302;10.128;2023-03-31T15:55:01;11.90;99.90
15707;DHT22;7953;54.302;10.128;2023-03-31T15:57:49;11.90;99.90
15707;DHT22;7953;54.302;10.128;2023-03-31T16:00:41;11.90;99.90
15707;DHT22;7953;54.302;10.128;2023-03-31T16:03:15;11.90;99.90
15707;DHT22;7953;54.302;10.128;2023-03-31T16:05:50;11.90;99.90
15707;DHT22;7953;54.302;10.128;2023-03-31T16:08:22;12.00;99.90
15707;DHT22;7953;54.302;10.128;2023-03-31T16:10:55;12.00;99.90
15707;DHT22;7953;54.302;10.128;2023-03-31T16:13:28;12.00;99.90
15707;DHT22;7953;54.302;10.128;2023-03-31T16:15:56;12.00;99.90
15707;DHT22;7953;54.302;10.128;2023-03-31T16:18:28;12.00;99.90
15707;DHT22;7953;54.302;10.128;2023-03-31T16:20:57;11.90;99.90